createdAt,value
2022-12-08T00:01:14.747Z,11.20
2022-12-08T00:03:42.007Z,11.30
2022-12-08T00:06:31.974Z,11.20
2022-12-08T00:09:17.713Z,11.20
2022-12-08T00:11:44.662Z,11.10
2022-12-08T00:14:11.570Z,11.00
2022-12-08T00:16:38.596Z,11.00
2022-12-08T00:19:05.570Z,11.00
2022-12-08T00:21:32.673Z,11.00
2022-12-08T00:23:59.972Z,11.10
2022-12-08T00:26:27.967Z,11.10
2022-12-08T00:28:54.867Z,11.00
2022-12-08T00:31:24.829Z,11.00
2022-12-08T00:33:51.872Z,11.00
2022-12-08T00:36:19.199Z,11.00
2022-12-08T00:38:57.628Z,11.00
2022-12-08T00:41:43.389Z,10.90
2022-12-08T00:44:11.009Z,10.80
2022-12-08T00:46:37.959Z,10.90
2022-12-08T00:49:05.505Z,10.90
2022-12-08T00:51:32.717Z,11.00
2022-12-08T00:53:59.888Z,11.00
2022-12-08T00:56:26.985Z,11.00
2022-12-08T00:58:55.700Z,11.00
2022-12-08T01:01:22.815Z,11.00
2022-12-08T01:03:49.962Z,11.10
2022-12-08T01:06:16.927Z,11.10
2022-12-08T01:08:43.837Z,11.10
2022-12-08T01:11:11.900Z,11.00
2022-12-08T01:13:38.870Z,10.80
2022-12-08T01:16:05.812Z,10.80
2022-12-08T01:18:32.771Z,10.80
2022-12-08T01:21:03.908Z,10.80
2022-12-08T01:23:30.787Z,10.90
2022-12-08T01:26:01.647Z,10.80
2022-12-08T01:28:28.537Z,10.80
2022-12-08T01:30:55.511Z,10.80
2022-12-08T01:33:22.602Z,10.90
2022-12-08T01:35:49.569Z,10.80
2022-12-08T01:38:16.441Z,10.70
2022-12-08T01:40:43.471Z,10.60
2022-12-08T01:43:17.196Z,10.60
2022-12-08T01:45:44.147Z,10.40
2022-12-08T01:48:15.640Z,10.40
2022-12-08T01:50:45.413Z,10.40
2022-12-08T01:53:38.657Z,10.50
2022-12-08T01:56:09.836Z,10.50
2022-12-08T01:58:37.670Z,10.60
2022-12-08T02:01:05.741Z,10.70
2022-12-08T02:03:37.244Z,10.60
2022-12-08T02:06:04.231Z,10.70
2022-12-08T02:08:31.589Z,10.80
2022-12-08T02:10:58.516Z,10.80
2022-12-08T02:13:25.479Z,10.80
2022-12-08T02:15:59.282Z,10.80
2022-12-08T02:18:32.945Z,10.90
2022-12-08T02:21:02.975Z,10.90
2022-12-08T02:23:29.914Z,10.90
2022-12-08T02:26:02.666Z,10.90
2022-12-08T02:28:36.156Z,10.90
2022-12-08T02:31:03.044Z,10.90
2022-12-08T02:33:39.030Z,10.90
2022-12-08T02:36:05.851Z,10.90
2022-12-08T02:38:37.896Z,10.90
2022-12-08T02:41:04.816Z,10.90
2022-12-08T02:43:36.066Z,10.80
2022-12-08T02:46:04.651Z,10.80
2022-12-08T02:48:32.830Z,10.70
2022-12-08T02:50:59.709Z,10.60
2022-12-08T02:53:27.479Z,10.40
2022-12-08T02:56:02.825Z,10.30
2022-12-08T02:58:36.886Z,10.30
2022-12-08T03:01:22.652Z,10.30
2022-12-08T03:03:58.503Z,10.40
2022-12-08T03:06:28.815Z,10.50
2022-12-08T03:08:56.428Z,10.70
2022-12-08T03:11:46.925Z,10.80
2022-12-08T03:14:14.680Z,10.80
2022-12-08T03:16:43.071Z,10.90
2022-12-08T03:19:11.276Z,10.80
2022-12-08T03:21:38.175Z,10.80
2022-12-08T03:24:06.021Z,10.70
2022-12-08T03:26:43.951Z,10.50
2022-12-08T03:29:10.843Z,10.50
2022-12-08T03:31:39.441Z,10.50
2022-12-08T03:34:06.430Z,10.60
2022-12-08T03:36:33.284Z,10.70
2022-12-08T03:39:00.222Z,10.70
2022-12-08T03:41:27.478Z,10.80
2022-12-08T03:43:55.204Z,10.80
2022-12-08T03:48:48.741Z,10.80
2022-12-08T03:51:15.757Z,10.90
2022-12-08T03:53:42.728Z,10.90
2022-12-08T03:56:15.820Z,10.90
2022-12-08T03:58:43.476Z,10.80
2022-12-08T04:01:10.843Z,10.90
2022-12-08T04:03:37.809Z,10.80
2022-12-08T04:06:04.875Z,10.90
2022-12-08T04:08:31.714Z,10.80
2022-12-08T04:10:58.694Z,10.80
2022-12-08T04:13:25.557Z,10.80
2022-12-08T04:15:52.416Z,10.90
2022-12-08T04:18:19.496Z,10.90
2022-12-08T04:20:47.665Z,10.90
2022-12-08T04:23:14.747Z,10.90
2022-12-08T04:25:41.767Z,10.90
2022-12-08T04:28:08.679Z,10.90
2022-12-08T04:30:35.749Z,11.00
2022-12-08T04:33:03.097Z,11.00
2022-12-08T04:35:30.261Z,11.00
2022-12-08T04:37:57.469Z,11.10
2022-12-08T04:40:24.532Z,11.10
2022-12-08T04:42:51.601Z,11.10
2022-12-08T04:45:21.086Z,11.00
2022-12-08T04:47:48.214Z,11.00
2022-12-08T04:50:15.309Z,11.00
2022-12-08T04:52:43.655Z,11.00
2022-12-08T04:55:10.537Z,10.90
2022-12-08T04:57:37.603Z,10.80
2022-12-08T05:00:05.524Z,10.80
2022-12-08T05:02:35.385Z,10.70
2022-12-08T05:05:02.299Z,10.70
2022-12-08T05:07:29.319Z,10.60
2022-12-08T05:09:56.285Z,10.60
2022-12-08T05:12:23.301Z,10.70
2022-12-08T05:14:50.192Z,10.70
2022-12-08T05:17:17.496Z,10.60
2022-12-08T05:19:44.485Z,10.60
2022-12-08T05:22:11.647Z,10.60
2022-12-08T05:24:42.540Z,10.70
2022-12-08T05:27:14.629Z,10.60
2022-12-08T05:29:41.532Z,10.70
2022-12-08T05:32:08.541Z,10.70
2022-12-08T05:34:35.484Z,10.80
2022-12-08T05:37:02.376Z,10.70
2022-12-08T05:39:29.247Z,10.70
2022-12-08T05:41:56.364Z,10.70
2022-12-08T05:44:23.280Z,10.70
2022-12-08T05:46:50.380Z,10.70
2022-12-08T05:49:17.483Z,10.70
2022-12-08T05:51:44.336Z,10.70
2022-12-08T05:54:12.385Z,10.80
2022-12-08T05:56:39.353Z,10.80
2022-12-08T05:59:07.164Z,10.90
2022-12-08T06:01:36.481Z,10.80
2022-12-08T06:04:04.982Z,10.90
2022-12-08T06:06:32.332Z,10.80
2022-12-08T06:08:59.254Z,10.80
2022-12-08T06:11:27.166Z,10.80
2022-12-08T06:13:54.755Z,10.80
2022-12-08T06:16:21.885Z,10.90
2022-12-08T06:18:50.297Z,10.90
2022-12-08T06:21:17.262Z,10.90
2022-12-08T06:23:44.187Z,10.80
2022-12-08T06:26:11.979Z,10.80
2022-12-08T06:28:39.609Z,10.80
2022-12-08T06:31:14.416Z,10.90
2022-12-08T06:33:41.334Z,10.80
2022-12-08T06:36:09.340Z,10.80
2022-12-08T06:38:39.329Z,10.80
2022-12-08T06:41:10.091Z,10.80
2022-12-08T06:43:37.082Z,10.90
2022-12-08T06:46:05.707Z,10.90
2022-12-08T06:48:32.811Z,10.90
2022-12-08T06:51:12.994Z,11.00
2022-12-08T06:53:40.086Z,11.10
2022-12-08T06:56:07.227Z,11.10
2022-12-08T06:58:34.227Z,11.10
2022-12-08T07:01:08.083Z,11.10
2022-12-08T07:03:35.388Z,11.00
2022-12-08T07:06:04.459Z,11.10
2022-12-08T07:08:32.232Z,11.10
2022-12-08T07:10:59.556Z,11.30
2022-12-08T07:13:27.212Z,11.30
2022-12-08T07:15:55.380Z,11.40
2022-12-08T07:18:22.391Z,11.40
2022-12-08T07:20:49.362Z,11.50
2022-12-08T07:23:16.252Z,11.50
2022-12-08T07:25:43.219Z,11.50
2022-12-08T07:28:10.795Z,11.50
2022-12-08T07:30:38.499Z,11.60
2022-12-08T07:33:08.320Z,11.60
2022-12-08T07:35:38.132Z,11.60
2022-12-08T07:38:05.089Z,11.70
2022-12-08T07:40:31.998Z,11.80
2022-12-08T07:42:59.296Z,12.00
2022-12-08T07:45:31.456Z,12.20
2022-12-08T07:47:58.849Z,12.40
2022-12-08T07:50:25.916Z,12.60
2022-12-08T07:52:52.837Z,12.80
2022-12-08T07:55:19.741Z,12.80
2022-12-08T07:57:46.621Z,12.80
2022-12-08T08:00:16.864Z,12.40
2022-12-08T08:02:44.015Z,12.20
2022-12-08T08:05:12.458Z,12.20
2022-12-08T08:07:39.914Z,12.20
2022-12-08T08:10:07.556Z,12.20
2022-12-08T08:12:34.630Z,12.10
2022-12-08T08:15:01.740Z,12.10
2022-12-08T08:17:29.480Z,12.10
2022-12-08T08:19:56.861Z,12.10
2022-12-08T08:22:24.845Z,12.00
2022-12-08T08:24:51.881Z,12.00
2022-12-08T08:27:18.866Z,12.00
2022-12-08T08:29:45.787Z,12.00
2022-12-08T08:32:12.680Z,12.00
2022-12-08T08:34:39.750Z,12.00
2022-12-08T08:37:06.673Z,11.90
2022-12-08T08:39:33.706Z,11.70
2022-12-08T08:42:00.608Z,11.70
2022-12-08T08:44:27.969Z,11.80
2022-12-08T08:46:55.026Z,11.80
2022-12-08T08:49:22.537Z,11.80
2022-12-08T08:51:49.611Z,11.90
2022-12-08T08:54:16.900Z,12.00
2022-12-08T08:56:50.247Z,12.10
2022-12-08T08:59:18.720Z,12.10
2022-12-08T09:01:46.622Z,12.10
2022-12-08T09:04:14.320Z,12.10
2022-12-08T09:06:43.803Z,12.20
2022-12-08T09:09:13.278Z,12.20
2022-12-08T09:11:41.549Z,12.20
2022-12-08T09:14:08.786Z,12.20
2022-12-08T09:16:41.770Z,12.30
2022-12-08T09:19:09.538Z,12.30
2022-12-08T09:21:36.605Z,12.30
2022-12-08T09:24:04.996Z,12.40
2022-12-08T09:26:35.469Z,12.30
2022-12-08T09:29:03.166Z,12.30
2022-12-08T09:31:30.324Z,12.30
2022-12-08T09:34:06.922Z,12.30
2022-12-08T09:39:40.730Z,12.30
2022-12-08T09:42:28.765Z,12.30
2022-12-08T09:45:14.511Z,12.30
2022-12-08T10:01:44.322Z,12.30
2022-12-08T10:04:30.193Z,12.30
2022-12-08T10:10:03.847Z,12.30
2022-12-08T10:18:25.584Z,12.30
2022-12-08T10:21:11.733Z,12.20
2022-12-08T10:23:46.206Z,12.20
2022-12-08T10:26:40.033Z,12.20
2022-12-08T10:29:27.021Z,12.20
2022-12-08T10:32:04.389Z,12.10
2022-12-08T10:37:24.867Z,12.00
2022-12-08T10:40:24.004Z,11.80
2022-12-08T10:42:58.034Z,11.70
2022-12-08T10:45:30.383Z,11.80
2022-12-08T10:48:01.210Z,11.80
2022-12-08T10:50:42.263Z,11.90
2022-12-08T11:05:36.149Z,12.10
2022-12-08T11:08:08.264Z,12.00
2022-12-08T11:10:38.287Z,12.10
2022-12-08T11:13:06.400Z,12.10
2022-12-08T11:15:36.323Z,12.10
2022-12-08T11:18:14.235Z,12.10
2022-12-08T11:20:42.914Z,12.20
2022-12-08T11:23:30.031Z,12.20
2022-12-08T11:26:01.171Z,12.20
2022-12-08T11:31:44.027Z,12.10
2022-12-08T11:34:12.072Z,12.10
2022-12-08T11:45:06.571Z,11.80
2022-12-08T11:47:56.086Z,11.90
2022-12-08T11:50:26.289Z,12.00
2022-12-08T11:53:06.656Z,12.00
2022-12-08T11:55:42.727Z,12.10
2022-12-08T11:58:14.763Z,12.10
2022-12-08T12:00:43.887Z,12.10
2022-12-08T12:06:53.801Z,11.80
2022-12-08T12:23:50.033Z,12.10
2022-12-08T12:26:18.365Z,12.20
2022-12-08T12:29:10.607Z,12.20
2022-12-08T12:31:42.030Z,12.40
2022-12-08T12:34:15.120Z,12.50
2022-12-08T12:36:52.790Z,12.50
2022-12-08T12:42:16.103Z,12.80
2022-12-08T12:44:46.774Z,12.90
2022-12-08T12:47:20.638Z,13.00
2022-12-08T12:52:45.866Z,13.00
2022-12-08T12:55:13.995Z,13.10
2022-12-08T13:03:16.123Z,13.20
2022-12-08T13:08:41.296Z,13.10
2022-12-08T13:11:11.910Z,13.10
2022-12-08T13:13:39.772Z,13.00
2022-12-08T13:16:19.180Z,13.00
2022-12-08T13:21:22.597Z,12.90
2022-12-08T13:23:51.136Z,12.80
2022-12-08T14:08:59.982Z,12.10
2022-12-08T14:11:36.939Z,12.20
2022-12-08T14:14:04.953Z,12.20
2022-12-08T14:17:06.625Z,12.20
2022-12-08T14:19:34.323Z,12.20
2022-12-08T14:22:04.268Z,12.30
2022-12-08T14:24:31.906Z,12.20
2022-12-08T14:27:03.091Z,12.20
2022-12-08T14:29:35.299Z,12.10
2022-12-08T14:32:02.371Z,12.10
2022-12-08T14:34:29.258Z,12.10
2022-12-08T14:36:58.197Z,12.10
2022-12-08T14:39:27.848Z,12.00
2022-12-08T14:42:02.170Z,12.00
2022-12-08T14:44:58.894Z,11.90
2022-12-08T14:47:30.321Z,12.00
2022-12-08T14:50:07.811Z,12.00
2022-12-08T14:52:34.944Z,12.00
2022-12-08T14:55:01.879Z,12.10
2022-12-08T14:57:36.782Z,12.10
2022-12-08T15:00:28.577Z,12.10
2022-12-08T15:03:38.358Z,12.10
2022-12-08T15:06:06.195Z,12.00
2022-12-08T15:08:33.385Z,11.70
2022-12-08T15:11:22.532Z,11.60
2022-12-08T15:13:54.112Z,11.60
2022-12-08T15:16:27.272Z,11.60
2022-12-08T15:19:05.874Z,11.70
2022-12-08T15:21:36.154Z,11.80
2022-12-08T15:24:03.681Z,11.80
2022-12-08T15:26:30.722Z,11.90
2022-12-08T15:28:58.764Z,11.90
2022-12-08T15:31:30.239Z,12.00
2022-12-08T15:33:57.682Z,11.90
2022-12-08T15:36:26.678Z,11.90
2022-12-08T15:38:56.329Z,12.00
2022-12-08T15:41:27.661Z,12.00
2022-12-08T15:43:55.441Z,12.10
2022-12-08T15:46:26.106Z,12.10
2022-12-08T16:00:52.487Z,11.80
2022-12-08T16:04:27.506Z,11.80
2022-12-08T16:09:13.227Z,11.90
2022-12-08T16:43:15.893Z,10.80
2022-12-08T17:47:03.649Z,11.60
2022-12-08T17:49:41.127Z,11.50
2022-12-08T17:52:19.578Z,11.50
2022-12-08T17:57:57.727Z,11.50
2022-12-08T18:00:35.329Z,11.50
2022-12-08T18:03:21.416Z,11.60
2022-12-08T18:05:51.146Z,11.70
2022-12-08T18:08:24.985Z,11.80
2022-12-08T18:10:55.051Z,11.80
2022-12-08T18:13:25.925Z,11.90
2022-12-08T18:15:57.818Z,11.90
2022-12-08T18:21:12.227Z,11.90
2022-12-08T18:26:33.442Z,11.80
2022-12-08T18:29:07.475Z,11.80
2022-12-08T19:49:23.286Z,11.70
2022-12-08T19:51:51.520Z,11.80
2022-12-08T19:54:27.146Z,11.80
2022-12-08T19:56:57.574Z,11.90
2022-12-08T19:59:30.928Z,11.90
2022-12-08T20:02:00.902Z,11.90
2022-12-08T20:04:33.522Z,11.90
2022-12-08T20:07:02.405Z,11.90
2022-12-08T20:09:37.807Z,11.80
2022-12-08T20:12:09.328Z,11.80
2022-12-08T20:14:41.455Z,11.80
2022-12-08T20:17:23.115Z,11.90
2022-12-08T20:20:11.016Z,11.90
2022-12-08T20:22:45.936Z,11.90
2022-12-08T20:25:13.432Z,11.90
2022-12-08T20:27:50.948Z,11.90
2022-12-08T20:30:28.846Z,11.90
2022-12-08T20:32:57.145Z,11.90
2022-12-08T20:35:24.183Z,11.90
2022-12-08T20:37:51.507Z,11.90
2022-12-08T20:40:21.280Z,11.90
2022-12-08T20:42:48.637Z,11.90
2022-12-08T21:10:18.873Z,11.30
2022-12-08T21:12:56.385Z,11.40
2022-12-08T21:15:23.590Z,11.50
2022-12-08T21:18:21.798Z,11.50
2022-12-08T21:20:49.306Z,11.50
2022-12-08T21:23:22.672Z,11.50
2022-12-08T21:25:50.297Z,11.50
2022-12-08T21:28:17.823Z,11.40
2022-12-08T21:30:45.611Z,11.40
2022-12-08T21:33:14.434Z,11.40
2022-12-08T21:35:41.853Z,11.40
2022-12-08T21:38:13.738Z,11.30
2022-12-08T21:40:41.220Z,11.30
2022-12-08T21:43:08.696Z,11.40
2022-12-08T21:45:36.148Z,11.30
2022-12-08T21:48:11.432Z,11.30
2022-12-08T21:50:39.346Z,11.40
2022-12-08T21:53:06.773Z,11.40
2022-12-08T21:55:34.207Z,11.40
2022-12-08T21:58:03.360Z,11.40
2022-12-08T22:00:30.778Z,11.40
2022-12-08T22:02:59.410Z,11.40
2022-12-08T22:05:27.984Z,11.40
2022-12-08T22:10:42.621Z,11.20
2022-12-08T22:13:13.561Z,11.10
2022-12-08T22:15:43.303Z,11.10
2022-12-08T22:23:41.062Z,11.10
2022-12-08T22:26:08.717Z,11.20
2022-12-08T22:28:43.306Z,11.30
2022-12-08T22:31:13.085Z,11.30
2022-12-08T22:36:25.773Z,11.30
2022-12-08T22:38:54.290Z,11.40
2022-12-08T22:41:22.213Z,11.40
2022-12-08T22:43:49.916Z,11.30
2022-12-08T22:46:20.201Z,11.30
2022-12-08T22:48:47.932Z,11.30
2022-12-08T22:51:16.496Z,11.30
2022-12-08T22:56:20.349Z,11.10
2022-12-08T22:58:48.006Z,11.10
2022-12-08T23:01:22.233Z,11.10
2022-12-08T23:03:50.989Z,11.00
2022-12-08T23:06:20.419Z,11.00
2022-12-08T23:09:02.292Z,10.90
2022-12-08T23:14:04.535Z,10.70
2022-12-08T23:16:31.922Z,10.70
2022-12-08T23:18:59.673Z,10.70
2022-12-08T23:21:27.629Z,10.50
2022-12-08T23:23:55.139Z,10.50
2022-12-08T23:26:24.755Z,10.50
2022-12-08T23:28:52.026Z,10.50
2022-12-08T23:31:42.280Z,10.70
2022-12-08T23:34:10.792Z,10.70
2022-12-08T23:36:40.362Z,10.60
2022-12-08T23:39:11.389Z,10.70
2022-12-08T23:41:38.733Z,10.60
2022-12-08T23:44:06.025Z,10.60
2022-12-08T23:46:45.529Z,10.60
2022-12-08T23:49:13.814Z,10.60
2022-12-08T23:51:41.088Z,10.60
2022-12-08T23:54:09.438Z,10.70
2022-12-08T23:56:36.908Z,10.70
2022-12-08T23:59:05.665Z,10.70
